createdAt,value
2023-05-23T00:01:45.508Z,17.78
2023-05-23T00:04:34.105Z,17.82
2023-05-23T00:07:22.851Z,17.88
2023-05-23T00:10:12.984Z,17.83
2023-05-23T00:13:01.512Z,17.77
2023-05-23T00:15:50.042Z,17.74
2023-05-23T00:18:40.250Z,17.77
2023-05-23T00:21:29.483Z,17.70
2023-05-23T00:24:18.619Z,17.75
2023-05-23T00:27:08.689Z,17.74
2023-05-23T00:29:57.201Z,17.71
2023-05-23T00:32:45.747Z,17.69
2023-05-23T00:35:34.241Z,17.75
2023-05-23T00:38:22.873Z,17.77
2023-05-23T00:41:11.421Z,17.74
2023-05-23T00:44:01.697Z,17.78
2023-05-23T00:46:53.535Z,17.75
2023-05-23T00:49:42.107Z,17.78
2023-05-23T00:52:30.621Z,17.78
2023-05-23T00:55:19.188Z,17.79
2023-05-23T00:58:08.081Z,17.78
2023-05-23T01:00:59.851Z,17.75
2023-05-23T01:03:48.601Z,17.75
2023-05-23T01:06:37.676Z,17.77
2023-05-23T01:09:27.238Z,17.72
2023-05-23T01:12:28.428Z,17.80
2023-05-23T01:15:18.974Z,17.82
2023-05-23T01:18:12.225Z,17.81
2023-05-23T01:21:03.747Z,17.85
2023-05-23T01:24:23.301Z,17.83
2023-05-23T01:27:23.607Z,17.83
2023-05-23T01:30:14.667Z,17.77
2023-05-23T01:33:03.772Z,17.77
2023-05-23T01:35:52.384Z,17.77
2023-05-23T01:38:40.879Z,17.75
2023-05-23T01:41:29.409Z,17.73
2023-05-23T01:44:19.765Z,17.79
2023-05-23T01:47:11.841Z,17.70
2023-05-23T01:50:00.883Z,17.65
2023-05-23T01:52:49.750Z,17.66
2023-05-23T01:55:38.334Z,17.66
2023-05-23T01:58:26.962Z,17.68
2023-05-23T02:01:15.895Z,17.68
2023-05-23T02:04:06.803Z,17.73
2023-05-23T02:06:55.340Z,17.69
2023-05-23T02:09:43.861Z,17.63
2023-05-23T02:12:32.369Z,17.60
2023-05-23T02:15:20.978Z,17.65
2023-05-23T02:18:09.507Z,17.70
2023-05-23T02:20:59.444Z,17.71
2023-05-23T02:23:47.962Z,17.76
2023-05-23T02:26:37.031Z,17.76
2023-05-23T02:29:25.540Z,17.80
2023-05-23T02:32:14.098Z,17.84
2023-05-23T02:35:02.912Z,17.79
2023-05-23T02:37:52.729Z,17.91
2023-05-23T02:40:41.255Z,17.92
2023-05-23T02:43:29.786Z,17.94
2023-05-23T02:46:18.331Z,17.96
2023-05-23T02:49:06.891Z,17.97
2023-05-23T02:51:55.426Z,18.00
2023-05-23T02:54:45.721Z,18.05
2023-05-23T02:57:34.270Z,18.11
2023-05-23T03:00:23.026Z,18.14
2023-05-23T03:03:11.888Z,18.17
2023-05-23T03:06:00.776Z,18.05
2023-05-23T03:08:49.390Z,18.15
2023-05-23T03:11:39.244Z,18.17
2023-05-23T03:14:27.841Z,18.20
2023-05-23T03:17:16.589Z,18.14
2023-05-23T03:20:07.046Z,18.18
2023-05-23T03:22:55.501Z,18.22
2023-05-23T03:25:44.267Z,18.26
2023-05-23T03:28:34.300Z,18.29
2023-05-23T03:31:22.833Z,18.31
2023-05-23T03:34:12.976Z,18.35
2023-05-23T03:37:01.433Z,18.34
2023-05-23T03:39:49.882Z,18.36
2023-05-23T03:42:39.759Z,18.38
2023-05-23T03:45:29.581Z,18.42
2023-05-23T03:48:18.203Z,18.51
2023-05-23T03:51:06.741Z,18.46
2023-05-23T03:53:55.240Z,18.58
2023-05-23T03:56:43.737Z,18.51
2023-05-23T03:59:32.299Z,18.52
2023-05-23T04:02:22.393Z,18.51
2023-05-23T04:05:11.221Z,18.47
2023-05-23T04:08:01.219Z,18.56
2023-05-23T04:10:49.786Z,18.47
2023-05-23T04:13:38.612Z,18.43
2023-05-23T04:16:27.237Z,18.39
2023-05-23T04:19:17.636Z,18.43
2023-05-23T04:22:06.800Z,18.37
2023-05-23T04:24:55.699Z,18.38
2023-05-23T04:27:44.173Z,18.36
2023-05-23T04:30:33.347Z,18.27
2023-05-23T04:33:21.851Z,18.25
2023-05-23T04:36:11.833Z,18.36
2023-05-23T04:39:01.547Z,18.30
2023-05-23T04:41:51.346Z,18.27
2023-05-23T04:44:39.816Z,18.29
2023-05-23T04:47:28.884Z,18.24
2023-05-23T04:50:18.523Z,18.14
2023-05-23T04:53:08.358Z,18.02
2023-05-23T04:55:57.589Z,18.13
2023-05-23T04:58:46.571Z,18.09
2023-05-23T05:01:35.223Z,18.08
2023-05-23T05:04:23.947Z,18.15
2023-05-23T05:07:12.723Z,17.96
2023-05-23T05:10:02.652Z,18.18
2023-05-23T05:12:51.181Z,18.18
2023-05-23T05:15:40.026Z,18.25
2023-05-23T05:18:28.823Z,18.13
2023-05-23T05:21:17.322Z,18.13
2023-05-23T05:24:05.889Z,18.17
2023-05-23T05:26:55.867Z,18.20
2023-05-23T05:29:44.608Z,18.27
2023-05-23T05:32:33.713Z,18.33
2023-05-23T05:35:22.301Z,18.43
2023-05-23T05:38:11.042Z,18.49
2023-05-23T05:40:59.609Z,18.57
2023-05-23T05:43:49.501Z,18.58
2023-05-23T05:46:38.149Z,18.66
2023-05-23T05:49:26.658Z,18.50
2023-05-23T05:52:15.312Z,18.53
2023-05-23T05:55:03.947Z,18.62
2023-05-23T05:57:52.523Z,18.57
2023-05-23T06:00:43.476Z,18.50
2023-05-23T06:03:32.221Z,18.47
2023-05-23T06:06:20.868Z,18.54
2023-05-23T06:09:09.365Z,18.46
2023-05-23T06:11:58.126Z,18.58
2023-05-23T06:14:46.901Z,18.64
2023-05-23T06:17:37.201Z,18.56
2023-05-23T06:20:25.809Z,18.53
2023-05-23T06:23:14.598Z,18.25
2023-05-23T06:26:03.132Z,18.19
2023-05-23T06:28:51.627Z,18.17
2023-05-23T06:31:40.152Z,18.16
2023-05-23T06:34:30.174Z,18.15
2023-05-23T06:37:18.938Z,18.19
2023-05-23T06:40:08.193Z,18.21
2023-05-23T06:42:56.813Z,18.00
2023-05-23T06:45:47.063Z,18.14
2023-05-23T06:48:35.587Z,18.30
2023-05-23T06:51:25.594Z,18.22
2023-05-23T06:54:14.200Z,18.30
2023-05-23T06:57:02.755Z,18.34
2023-05-23T06:59:51.264Z,18.30
2023-05-23T07:02:39.802Z,18.23
2023-05-23T07:05:29.291Z,18.27
2023-05-23T07:08:19.146Z,18.29
2023-05-23T07:11:07.887Z,18.21
2023-05-23T07:13:56.748Z,18.29
2023-05-23T07:16:45.353Z,18.31
2023-05-23T07:19:34.000Z,18.34
2023-05-23T07:22:22.582Z,18.33
2023-05-23T07:25:12.605Z,18.27
2023-05-23T07:28:01.125Z,18.34
2023-05-23T07:30:49.776Z,18.37
2023-05-23T07:33:38.272Z,18.30
2023-05-23T07:36:27.550Z,18.33
2023-05-23T07:39:21.977Z,18.30
2023-05-23T07:42:11.919Z,18.31
2023-05-23T07:45:01.027Z,18.25
2023-05-23T07:47:50.475Z,18.34
2023-05-23T07:50:39.747Z,18.34
2023-05-23T07:53:28.680Z,18.44
2023-05-23T07:56:17.276Z,18.29
2023-05-23T07:59:08.546Z,18.33
2023-05-23T08:01:57.116Z,17.73
2023-05-23T08:04:46.108Z,18.36
2023-05-23T08:07:34.706Z,18.43
2023-05-23T08:10:23.306Z,18.40
2023-05-23T08:13:11.871Z,18.48
2023-05-23T08:16:01.790Z,18.63
2023-05-23T08:18:50.377Z,18.60
2023-05-23T08:21:38.921Z,18.70
2023-05-23T08:24:27.390Z,18.88
2023-05-23T08:27:15.873Z,18.94
2023-05-23T08:30:05.150Z,18.94
2023-05-23T08:32:55.994Z,18.60
2023-05-23T08:35:44.861Z,18.88
2023-05-23T08:38:51.766Z,18.87
2023-05-23T08:41:40.554Z,18.50
2023-05-23T08:44:29.078Z,18.78
2023-05-23T08:47:18.283Z,18.83
2023-05-23T08:50:10.135Z,18.80
2023-05-23T08:53:01.118Z,18.94
2023-05-23T08:55:51.171Z,18.92
2023-05-23T08:58:41.941Z,18.91
2023-05-23T09:01:31.189Z,19.08
2023-05-23T09:04:19.749Z,19.09
2023-05-23T09:07:11.276Z,19.10
2023-05-23T09:09:59.822Z,19.13
2023-05-23T09:12:48.361Z,19.05
2023-05-23T09:15:37.677Z,18.98
2023-05-23T09:18:26.783Z,18.78
2023-05-23T09:21:15.450Z,18.91
2023-05-23T09:24:06.941Z,18.89
2023-05-23T09:26:55.509Z,19.03
2023-05-23T09:29:44.034Z,19.24
2023-05-23T09:32:32.573Z,19.30
2023-05-23T09:35:24.232Z,19.30
2023-05-23T09:38:12.873Z,19.43
2023-05-23T09:41:02.788Z,19.37
2023-05-23T09:43:52.574Z,19.22
2023-05-23T09:46:41.240Z,19.52
2023-05-23T09:49:30.082Z,19.62
2023-05-23T09:52:20.132Z,19.77
2023-05-23T09:55:09.404Z,19.68
2023-05-23T09:58:00.838Z,19.63
2023-05-23T10:00:52.913Z,19.63
2023-05-23T10:03:47.121Z,19.42
2023-05-23T10:06:42.831Z,18.84
2023-05-23T10:09:35.005Z,19.61
2023-05-23T10:12:44.443Z,19.60
2023-05-23T10:15:39.845Z,19.71
2023-05-23T10:18:31.078Z,19.76
2023-05-23T10:21:21.947Z,19.83
2023-05-23T10:24:10.501Z,19.88
2023-05-23T10:26:59.420Z,20.06
2023-05-23T10:29:48.025Z,20.19
2023-05-23T10:32:40.053Z,20.09
2023-05-23T10:35:46.246Z,19.76
2023-05-23T10:38:38.018Z,19.92
2023-05-23T10:41:30.137Z,19.85
2023-05-23T10:44:24.244Z,19.47
2023-05-23T10:47:13.115Z,18.99
2023-05-23T10:50:03.251Z,19.79
2023-05-23T10:52:54.580Z,19.84
2023-05-23T10:55:43.157Z,19.97
2023-05-23T10:58:32.140Z,20.08
2023-05-23T11:01:20.811Z,20.04
2023-05-23T11:04:09.547Z,20.09
2023-05-23T11:06:59.480Z,20.13
2023-05-23T11:10:10.964Z,19.97
2023-05-23T11:13:07.608Z,20.21
2023-05-23T11:15:56.126Z,20.35
2023-05-23T11:18:45.363Z,20.43
2023-05-23T11:21:34.011Z,20.52
2023-05-23T11:24:24.570Z,20.80
2023-05-23T11:27:13.836Z,20.89
2023-05-23T11:30:04.985Z,20.91
2023-05-23T11:32:55.802Z,20.77
2023-05-23T11:35:45.756Z,20.82
2023-05-23T11:38:34.724Z,20.81
2023-05-23T11:41:24.658Z,21.00
2023-05-23T11:44:14.116Z,21.09
2023-05-23T11:47:04.082Z,21.21
2023-05-23T11:49:52.654Z,21.20
2023-05-23T11:52:41.516Z,21.20
2023-05-23T11:55:30.223Z,21.20
2023-05-23T11:58:20.202Z,21.27
2023-05-23T12:01:10.306Z,21.19
2023-05-23T12:03:58.905Z,21.13
2023-05-23T12:06:48.057Z,21.05
2023-05-23T12:09:44.073Z,20.66
2023-05-23T12:12:33.335Z,20.24
2023-05-23T12:15:26.945Z,20.26
2023-05-23T12:18:16.012Z,20.30
2023-05-23T12:21:06.062Z,20.21
2023-05-23T12:23:55.049Z,20.27
2023-05-23T12:26:51.228Z,20.27
2023-05-23T12:29:39.846Z,20.30
2023-05-23T12:32:29.936Z,20.34
2023-05-23T12:35:18.782Z,20.42
2023-05-23T12:38:07.962Z,20.42
2023-05-23T12:41:09.368Z,20.31
2023-05-23T12:43:58.300Z,20.37
2023-05-23T12:46:48.188Z,20.69
2023-05-23T12:49:39.386Z,20.72
2023-05-23T12:52:27.895Z,20.75
2023-05-23T12:55:16.866Z,20.82
2023-05-23T12:58:05.493Z,20.71
2023-05-23T13:00:54.353Z,21.01
2023-05-23T13:03:42.977Z,21.08
2023-05-23T13:06:33.406Z,21.15
2023-05-23T13:09:22.817Z,21.32
2023-05-23T13:12:12.368Z,21.46
2023-05-23T13:15:01.230Z,21.40
2023-05-23T13:17:50.539Z,21.39
2023-05-23T13:20:39.345Z,21.57
2023-05-23T13:23:29.553Z,21.51
2023-05-23T13:26:18.317Z,21.37
2023-05-23T13:29:07.193Z,21.41
2023-05-23T13:31:55.852Z,21.29
2023-05-23T13:34:44.505Z,21.20
2023-05-23T13:37:33.368Z,21.43
2023-05-23T13:40:23.367Z,21.55
2023-05-23T13:43:12.147Z,21.60
2023-05-23T13:46:02.049Z,21.67
2023-05-23T13:48:50.786Z,21.98
2023-05-23T13:51:39.973Z,22.00
2023-05-23T13:54:28.567Z,22.02
2023-05-23T13:57:18.560Z,21.36
2023-05-23T14:00:09.095Z,21.29
2023-05-23T14:02:57.741Z,21.22
2023-05-23T14:05:46.440Z,21.08
2023-05-23T14:08:35.262Z,21.00
2023-05-23T14:11:24.035Z,20.80
2023-05-23T14:14:13.941Z,20.74
2023-05-23T14:17:03.281Z,20.70
2023-05-23T14:19:52.277Z,20.78
2023-05-23T14:22:40.862Z,21.02
2023-05-23T14:25:29.418Z,21.28
2023-05-23T14:28:18.181Z,21.14
2023-05-23T14:31:08.579Z,21.51
2023-05-23T14:33:57.120Z,21.42
2023-05-23T14:36:45.984Z,21.50
2023-05-23T14:39:34.731Z,21.22
2023-05-23T14:42:23.266Z,21.00
2023-05-23T14:45:12.645Z,21.03
2023-05-23T14:48:03.047Z,20.98
2023-05-23T14:50:51.946Z,20.90
2023-05-23T14:53:40.637Z,21.07
2023-05-23T14:56:29.479Z,21.08
2023-05-23T14:59:18.038Z,21.06
2023-05-23T15:02:07.239Z,21.01
2023-05-23T15:04:57.318Z,21.03
2023-05-23T15:07:46.344Z,21.12
2023-05-23T15:10:34.811Z,21.22
2023-05-23T15:13:23.312Z,21.30
2023-05-23T15:16:11.832Z,21.47
2023-05-23T15:19:00.552Z,21.51
2023-05-23T15:21:51.743Z,21.51
2023-05-23T15:24:41.008Z,21.47
2023-05-23T15:27:29.688Z,21.37
2023-05-23T15:30:18.572Z,21.26
2023-05-23T15:33:07.989Z,21.19
2023-05-23T15:35:58.860Z,21.06
2023-05-23T15:38:48.729Z,20.75
2023-05-23T15:41:37.527Z,20.65
2023-05-23T15:44:26.319Z,20.59
2023-05-23T15:47:14.967Z,20.57
2023-05-23T15:50:03.586Z,20.45
2023-05-23T15:52:52.161Z,20.69
2023-05-23T15:55:42.929Z,20.77
2023-05-23T15:58:32.375Z,20.62
2023-05-23T16:01:22.794Z,20.74
2023-05-23T16:04:11.493Z,20.72
2023-05-23T16:07:00.326Z,20.74
2023-05-23T16:09:49.102Z,20.51
2023-05-23T16:12:39.050Z,20.35
2023-05-23T16:15:27.723Z,20.08
2023-05-23T16:18:16.298Z,19.91
2023-05-23T16:21:05.660Z,20.27
2023-05-23T16:23:54.276Z,20.20
2023-05-23T16:26:42.920Z,20.22
2023-05-23T16:29:32.892Z,19.96
2023-05-23T16:32:21.483Z,20.05
2023-05-23T16:35:11.315Z,20.12
2023-05-23T16:38:00.108Z,20.20
2023-05-23T16:40:48.909Z,20.15
2023-05-23T16:43:37.442Z,20.07
2023-05-23T16:46:27.533Z,20.16
2023-05-23T16:49:16.087Z,20.03
2023-05-23T16:52:04.824Z,20.13
2023-05-23T16:54:55.743Z,20.22
2023-05-23T16:57:44.417Z,20.08
2023-05-23T17:00:33.259Z,20.10
2023-05-23T17:03:23.311Z,20.02
2023-05-23T17:06:12.345Z,19.98
2023-05-23T17:09:00.961Z,19.94
2023-05-23T17:11:49.672Z,19.84
2023-05-23T17:14:38.522Z,19.82
2023-05-23T17:17:27.070Z,19.81
2023-05-23T17:20:16.998Z,19.61
2023-05-23T17:23:06.032Z,19.62
2023-05-23T17:25:55.297Z,19.37
2023-05-23T17:28:43.913Z,19.34
2023-05-23T17:31:32.813Z,18.98
2023-05-23T17:34:21.817Z,18.87
2023-05-23T17:37:12.095Z,18.78
2023-05-23T17:40:00.892Z,18.60
2023-05-23T17:42:49.830Z,18.60
2023-05-23T17:45:38.408Z,18.64
2023-05-23T17:48:42.605Z,18.60
2023-05-23T17:51:35.041Z,18.62
2023-05-23T17:54:24.903Z,18.53
2023-05-23T17:57:13.893Z,18.45
2023-05-23T18:00:02.479Z,18.26
2023-05-23T18:02:51.958Z,18.31
2023-05-23T18:05:40.598Z,18.39
2023-05-23T18:08:29.188Z,18.23
2023-05-23T18:11:19.636Z,18.36
2023-05-23T18:14:08.238Z,18.37
2023-05-23T18:16:57.105Z,18.15
2023-05-23T18:19:46.405Z,18.37
2023-05-23T18:22:34.940Z,18.35
2023-05-23T18:25:28.083Z,18.32
2023-05-23T18:28:18.040Z,18.32
2023-05-23T18:31:06.594Z,18.22
2023-05-23T18:33:55.259Z,18.16
2023-05-23T18:36:43.945Z,18.02
2023-05-23T18:39:32.509Z,17.98
2023-05-23T18:42:21.070Z,17.80
2023-05-23T18:45:12.412Z,17.72
2023-05-23T18:48:00.970Z,17.64
2023-05-23T18:50:52.225Z,17.62
2023-05-23T18:53:42.431Z,17.50
2023-05-23T18:56:31.530Z,17.48
2023-05-23T18:59:20.033Z,17.51
2023-05-23T19:02:10.104Z,17.48
2023-05-23T19:04:58.757Z,17.36
2023-05-23T19:07:47.569Z,17.32
2023-05-23T19:10:36.166Z,17.37
2023-05-23T19:13:24.674Z,17.33
2023-05-23T19:16:13.614Z,17.28
2023-05-23T19:19:03.565Z,17.25
2023-05-23T19:21:52.151Z,17.33
2023-05-23T19:24:40.741Z,17.24
2023-05-23T19:27:29.273Z,17.22
2023-05-23T19:30:17.853Z,17.22
2023-05-23T19:33:07.203Z,17.18
2023-05-23T19:35:57.383Z,17.15
2023-05-23T19:38:45.984Z,17.04
2023-05-23T19:41:34.544Z,16.98
2023-05-23T19:44:23.139Z,17.04
2023-05-23T19:47:12.183Z,16.98
2023-05-23T19:50:00.868Z,16.98
2023-05-23T19:52:51.325Z,16.93
2023-05-23T19:55:39.918Z,16.93
2023-05-23T19:58:28.774Z,16.88
2023-05-23T20:01:17.335Z,16.82
2023-05-23T20:04:07.228Z,16.80
2023-05-23T20:06:56.060Z,16.63
2023-05-23T20:09:46.049Z,16.65
2023-05-23T20:12:34.731Z,16.64
2023-05-23T20:15:35.284Z,16.66
2023-05-23T20:18:28.160Z,16.63
2023-05-23T20:21:16.730Z,16.62
2023-05-23T20:24:05.641Z,16.59
2023-05-23T20:26:55.555Z,16.50
2023-05-23T20:29:44.314Z,16.55
2023-05-23T20:32:32.911Z,16.52
2023-05-23T20:35:22.570Z,16.49
2023-05-23T20:38:11.415Z,16.44
2023-05-23T20:41:06.504Z,16.42
2023-05-23T20:43:56.501Z,16.39
2023-05-23T20:46:45.121Z,16.29
2023-05-23T20:49:34.766Z,16.27
2023-05-23T20:52:24.534Z,16.23
2023-05-23T20:55:14.109Z,16.23
2023-05-23T20:58:02.677Z,16.13
2023-05-23T21:00:52.929Z,16.15
2023-05-23T21:03:42.147Z,16.13
2023-05-23T21:06:30.688Z,16.19
2023-05-23T21:09:19.552Z,16.17
2023-05-23T21:12:08.522Z,16.18
2023-05-23T21:14:57.991Z,16.01
2023-05-23T21:17:47.912Z,16.16
2023-05-23T21:20:36.470Z,16.14
2023-05-23T21:23:25.034Z,16.06
2023-05-23T21:26:13.565Z,16.07
2023-05-23T21:29:02.051Z,16.08
2023-05-23T21:31:50.706Z,16.02
2023-05-23T21:34:40.748Z,15.98
2023-05-23T21:37:29.335Z,15.98
2023-05-23T21:40:18.133Z,16.06
2023-05-23T21:43:06.688Z,15.97
2023-05-23T21:45:55.258Z,15.94
2023-05-23T21:48:43.786Z,15.92
2023-05-23T21:51:34.133Z,15.88
2023-05-23T21:54:22.676Z,15.90
2023-05-23T21:57:11.138Z,15.89
2023-05-23T21:59:59.966Z,15.95
2023-05-23T22:02:48.606Z,15.97
2023-05-23T22:05:37.293Z,16.04
2023-05-23T22:08:31.744Z,16.05
2023-05-23T22:11:20.475Z,15.97
2023-05-23T22:14:09.096Z,15.94
2023-05-23T22:16:59.081Z,15.93
2023-05-23T22:19:48.500Z,15.89
2023-05-23T22:22:38.491Z,15.89
2023-05-23T22:25:32.421Z,15.91
2023-05-23T22:28:21.011Z,16.07
2023-05-23T22:31:12.105Z,15.98
2023-05-23T22:34:01.599Z,15.93
2023-05-23T22:36:50.592Z,15.88
2023-05-23T22:39:39.207Z,15.90
2023-05-23T22:42:29.220Z,15.86
2023-05-23T22:45:17.724Z,15.90
2023-05-23T22:48:06.460Z,15.81
2023-05-23T22:50:55.133Z,15.76
2023-05-23T22:53:43.850Z,15.80
2023-05-23T22:56:32.902Z,15.79
2023-05-23T22:59:22.786Z,15.81
2023-05-23T23:02:11.405Z,15.75
2023-05-23T23:05:01.110Z,15.72
2023-05-23T23:07:49.712Z,15.65
2023-05-23T23:10:38.267Z,15.68
2023-05-23T23:13:26.822Z,15.69
2023-05-23T23:16:19.258Z,15.68
2023-05-23T23:19:07.832Z,15.68
2023-05-23T23:21:56.705Z,15.64
2023-05-23T23:24:45.436Z,15.63
2023-05-23T23:27:33.952Z,15.48
2023-05-23T23:30:22.637Z,15.40
2023-05-23T23:33:12.580Z,15.33
2023-05-23T23:36:01.142Z,15.44
2023-05-23T23:38:49.717Z,15.39
2023-05-23T23:41:38.196Z,15.35
2023-05-23T23:44:26.669Z,15.33
2023-05-23T23:47:15.296Z,15.44
2023-05-23T23:50:05.709Z,15.33
2023-05-23T23:52:54.224Z,15.28
2023-05-23T23:55:42.750Z,15.24
2023-05-23T23:58:31.479Z,15.28
